Terminal Aerodrome Forecast
Issued by NWS Wilmington, OH

Home | Current Version | Previous Version | Text Only | Print | Product List | Glossary On
Versions: 1 2 3 4 5 6 7 8 9 10 11 12 13 14 15
000
FTUS41 KILN 230700 AAA
TAFILN
TAF AMD
KILN 230709Z 2307/2406 19008KT P6SM VCSH SCT050 OVC080
     FM230900 17008KT P6SM OVC060
      TEMPO 2314/2317 -SHRA BKN020
     FM231700 15012KT P6SM VCSH BKN020 BKN040
     FM232300 13010G18KT 4SM -SHRA BR OVC012
     FM240300 16014G26KT 3SM -SHRA BR OVC009=

USA.gov is the U.S. government's official web portal to all federal, state and local government web resources and services.